createdAt,value
2022-10-19T00:02:24.523Z,100.00
2022-10-19T00:04:51.023Z,100.00
2022-10-19T00:07:17.605Z,100.00
2022-10-19T00:09:44.569Z,100.00
2022-10-19T00:12:11.116Z,100.00
2022-10-19T00:14:37.660Z,100.00
2022-10-19T00:17:04.080Z,100.00
2022-10-19T00:19:30.741Z,100.00
2022-10-19T00:21:57.294Z,100.00
2022-10-19T00:24:23.827Z,100.00
2022-10-19T00:26:50.242Z,100.00
2022-10-19T00:29:17.412Z,100.00
2022-10-19T00:31:44.062Z,100.00
2022-10-19T00:34:10.807Z,100.00
2022-10-19T00:36:40.562Z,100.00
2022-10-19T00:39:10.954Z,100.00
2022-10-19T00:41:38.329Z,100.00
2022-10-19T00:44:07.821Z,100.00
2022-10-19T00:46:37.433Z,100.00
2022-10-19T00:49:12.537Z,100.00
2022-10-19T00:51:42.193Z,100.00
2022-10-19T00:54:10.070Z,100.00
2022-10-19T00:56:40.040Z,100.00
2022-10-19T00:59:08.583Z,100.00
2022-10-19T01:01:36.345Z,100.00
2022-10-19T01:04:04.072Z,100.00
2022-10-19T01:06:31.576Z,100.00
2022-10-19T01:08:57.975Z,100.00
2022-10-19T01:11:27.628Z,100.00
2022-10-19T01:14:03.257Z,100.00
2022-10-19T01:17:06.998Z,100.00
2022-10-19T01:20:01.698Z,100.00
2022-10-19T01:22:56.506Z,100.00
2022-10-19T01:25:31.651Z,100.00
2022-10-19T01:28:23.282Z,100.00
2022-10-19T01:30:54.852Z,100.00
2022-10-19T01:33:41.356Z,100.00
2022-10-19T01:36:37.903Z,100.00
2022-10-19T01:39:09.507Z,100.00
2022-10-19T01:42:20.998Z,100.00
2022-10-19T01:44:54.941Z,100.00
2022-10-19T01:47:35.026Z,100.00
2022-10-19T01:50:20.006Z,100.00
2022-10-19T01:52:50.036Z,100.00
2022-10-19T01:55:18.308Z,100.00
2022-10-19T01:57:55.487Z,100.00
2022-10-19T02:00:23.674Z,100.00
2022-10-19T02:02:53.183Z,100.00
2022-10-19T02:05:23.577Z,100.00
2022-10-19T02:07:56.120Z,100.00
2022-10-19T02:10:23.974Z,100.00
2022-10-19T02:12:53.923Z,100.00
2022-10-19T02:15:25.202Z,100.00
2022-10-19T02:17:53.223Z,100.00
2022-10-19T02:20:20.579Z,100.00
2022-10-19T02:22:47.116Z,100.00
2022-10-19T02:25:14.680Z,100.00
2022-10-19T02:27:42.169Z,100.00
2022-10-19T02:30:14.936Z,100.00
2022-10-19T02:32:42.807Z,100.00
2022-10-19T02:35:10.855Z,100.00
2022-10-19T02:37:38.015Z,100.00
2022-10-19T02:40:06.321Z,100.00
2022-10-19T02:42:40.331Z,100.00
2022-10-19T02:45:23.871Z,100.00
2022-10-19T02:47:58.428Z,100.00
2022-10-19T02:50:25.574Z,100.00
2022-10-19T02:52:52.410Z,100.00
2022-10-19T02:55:19.154Z,100.00
2022-10-19T02:57:45.692Z,100.00
2022-10-19T03:00:12.544Z,100.00
2022-10-19T03:02:39.102Z,100.00
2022-10-19T03:05:06.238Z,100.00
2022-10-19T03:07:33.348Z,100.00
2022-10-19T03:10:00.240Z,100.00
2022-10-19T03:12:26.879Z,100.00
2022-10-19T03:14:53.546Z,100.00
2022-10-19T03:17:20.153Z,100.00
2022-10-19T03:19:47.114Z,100.00
2022-10-19T03:22:14.482Z,100.00
2022-10-19T03:24:41.218Z,100.00
2022-10-19T03:27:07.761Z,100.00
2022-10-19T03:29:34.293Z,100.00
2022-10-19T03:32:00.841Z,100.00
2022-10-19T03:34:27.589Z,100.00
2022-10-19T03:36:54.021Z,100.00
2022-10-19T03:39:20.566Z,100.00
2022-10-19T03:41:47.101Z,100.00
2022-10-19T03:44:13.650Z,100.00
2022-10-19T03:46:40.290Z,100.00
2022-10-19T03:49:07.134Z,100.00
2022-10-19T03:51:34.204Z,100.00
2022-10-19T03:54:05.014Z,100.00
2022-10-19T03:56:32.706Z,100.00
2022-10-19T03:59:01.291Z,100.00
2022-10-19T04:01:31.075Z,100.00
2022-10-19T04:04:00.575Z,100.00
2022-10-19T04:06:33.163Z,100.00
2022-10-19T04:08:59.948Z,100.00
2022-10-19T04:11:29.453Z,100.00
2022-10-19T04:13:58.360Z,100.00
2022-10-19T04:16:26.717Z,100.00
2022-10-19T04:18:53.992Z,100.00
2022-10-19T04:21:26.609Z,100.00
2022-10-19T04:23:57.385Z,100.00
2022-10-19T04:26:24.124Z,100.00
2022-10-19T04:28:50.775Z,100.00
2022-10-19T04:31:17.411Z,100.00
2022-10-19T04:33:44.187Z,100.00
2022-10-19T04:36:12.367Z,100.00
2022-10-19T04:38:39.532Z,100.00
2022-10-19T04:41:20.591Z,100.00
2022-10-19T04:43:48.189Z,100.00
2022-10-19T04:46:17.880Z,100.00
2022-10-19T04:48:45.754Z,100.00
2022-10-19T04:51:13.110Z,100.00
2022-10-19T04:53:41.080Z,100.00
2022-10-19T04:56:12.281Z,100.00
2022-10-19T04:58:38.653Z,100.00
2022-10-19T05:01:21.788Z,100.00
2022-10-19T05:03:49.078Z,100.00
2022-10-19T05:06:16.006Z,100.00
2022-10-19T05:08:42.756Z,100.00
2022-10-19T05:11:12.644Z,100.00
2022-10-19T05:13:39.105Z,100.00
2022-10-19T05:16:08.223Z,100.00
2022-10-19T05:18:35.066Z,100.00
2022-10-19T05:21:13.256Z,100.00
2022-10-19T05:23:41.112Z,100.00
2022-10-19T05:26:12.101Z,100.00
2022-10-19T05:28:39.168Z,100.00
2022-10-19T05:31:07.018Z,100.00
2022-10-19T05:33:33.670Z,100.00
2022-10-19T05:36:00.121Z,100.00
2022-10-19T05:38:26.582Z,100.00
2022-10-19T05:40:53.678Z,100.00
2022-10-19T05:43:20.414Z,100.00
2022-10-19T05:45:46.889Z,100.00
2022-10-19T05:48:13.324Z,100.00
2022-10-19T05:50:39.863Z,100.00
2022-10-19T05:53:06.274Z,100.00
2022-10-19T05:55:35.296Z,100.00
2022-10-19T05:58:01.778Z,100.00
2022-10-19T06:00:28.464Z,100.00
2022-10-19T06:02:59.056Z,100.00
2022-10-19T06:05:25.975Z,100.00
2022-10-19T06:07:52.511Z,100.00
2022-10-19T06:10:19.015Z,100.00
2022-10-19T06:12:46.106Z,100.00
2022-10-19T06:15:12.855Z,100.00
2022-10-19T06:17:39.577Z,100.00
2022-10-19T06:20:06.748Z,100.00
2022-10-19T06:22:33.188Z,100.00
2022-10-19T06:24:59.671Z,100.00
2022-10-19T06:27:26.283Z,100.00
2022-10-19T06:29:53.002Z,100.00
2022-10-19T06:32:19.515Z,100.00
2022-10-19T06:34:46.072Z,100.00
2022-10-19T06:37:12.702Z,100.00
2022-10-19T06:39:39.255Z,100.00
2022-10-19T06:42:06.014Z,100.00
2022-10-19T06:44:32.552Z,100.00
2022-10-19T06:46:59.052Z,100.00
2022-10-19T06:49:25.631Z,100.00
2022-10-19T06:51:52.174Z,100.00
2022-10-19T06:54:18.615Z,100.00
2022-10-19T06:56:45.184Z,100.00
2022-10-19T06:59:11.665Z,100.00
2022-10-19T07:01:38.244Z,100.00
2022-10-19T07:04:05.064Z,100.00
2022-10-19T07:06:31.517Z,100.00
2022-10-19T07:08:57.955Z,100.00
2022-10-19T07:11:24.499Z,100.00
2022-10-19T07:13:52.877Z,100.00
2022-10-19T07:16:21.521Z,100.00
2022-10-19T07:18:52.707Z,100.00
2022-10-19T07:21:21.991Z,100.00
2022-10-19T07:23:49.175Z,100.00
2022-10-19T07:26:19.066Z,100.00
2022-10-19T07:28:47.413Z,100.00
2022-10-19T07:31:17.061Z,100.00
2022-10-19T07:33:44.447Z,100.00
2022-10-19T07:36:12.214Z,100.00
2022-10-19T07:38:38.755Z,100.00
2022-10-19T07:41:11.082Z,100.00
2022-10-19T07:43:37.532Z,100.00
2022-10-19T07:46:07.599Z,100.00
2022-10-19T07:48:35.166Z,100.00
2022-10-19T07:51:04.575Z,100.00
2022-10-19T07:53:31.537Z,100.00
2022-10-19T07:56:04.260Z,100.00
2022-10-19T07:58:30.688Z,100.00
2022-10-19T08:01:12.061Z,100.00
2022-10-19T08:06:26.349Z,100.00
2022-10-19T08:08:54.098Z,100.00
2022-10-19T08:11:24.678Z,100.00
2022-10-19T08:13:52.246Z,100.00
2022-10-19T08:16:39.415Z,100.00
2022-10-19T08:19:16.178Z,100.00
2022-10-19T08:21:45.021Z,100.00
2022-10-19T08:24:13.811Z,100.00
2022-10-19T08:26:41.121Z,100.00
2022-10-19T08:29:16.369Z,100.00
2022-10-19T08:31:44.557Z,73.54
2022-10-19T08:34:12.757Z,68.05
2022-10-19T08:36:39.886Z,72.41
2022-10-19T08:39:08.367Z,69.34
2022-10-19T08:41:57.846Z,68.36
2022-10-19T08:44:50.049Z,67.53
2022-10-19T08:47:38.338Z,66.98
2022-10-19T08:50:20.188Z,69.12
2022-10-19T08:52:54.487Z,68.81
2022-10-19T08:55:31.468Z,68.39
2022-10-19T08:58:12.240Z,67.75
2022-10-19T09:00:51.144Z,64.73
2022-10-19T09:03:54.538Z,63.39
2022-10-19T09:06:36.750Z,65.43
2022-10-19T09:09:05.606Z,65.74
2022-10-19T09:11:41.665Z,64.55
2022-10-19T09:14:23.053Z,61.81
2022-10-19T09:16:49.643Z,60.83
2022-10-19T09:19:28.003Z,60.98
2022-10-19T09:21:57.881Z,61.07
2022-10-19T09:24:36.964Z,61.52
2022-10-19T09:27:05.978Z,60.05
2022-10-19T09:29:41.806Z,60.46
2022-10-19T09:32:22.638Z,61.33
2022-10-19T09:34:58.521Z,62.52
2022-10-19T09:37:26.819Z,63.45
2022-10-19T09:39:55.561Z,63.98
2022-10-19T09:42:32.993Z,64.12
2022-10-19T09:45:11.981Z,63.96
2022-10-19T09:47:40.994Z,64.03
2022-10-19T09:50:09.371Z,64.48
2022-10-19T09:52:40.118Z,65.46
2022-10-19T09:55:28.974Z,65.96
2022-10-19T09:58:15.345Z,65.96
2022-10-19T10:00:44.733Z,66.23
2022-10-19T10:03:37.647Z,66.92
2022-10-19T10:06:07.690Z,66.81
2022-10-19T10:08:38.259Z,66.74
2022-10-19T10:11:12.599Z,67.21
2022-10-19T10:13:41.623Z,66.82
2022-10-19T10:16:14.071Z,68.01
2022-10-19T10:18:57.091Z,67.26
2022-10-19T10:21:25.965Z,67.30
2022-10-19T10:24:13.078Z,68.17
2022-10-19T10:26:42.207Z,68.66
2022-10-19T10:29:35.390Z,69.30
2022-10-19T10:32:13.762Z,69.48
2022-10-19T10:34:52.833Z,67.55
2022-10-19T10:37:22.161Z,67.56
2022-10-19T10:39:55.172Z,67.50
2022-10-19T10:42:34.905Z,67.34
2022-10-19T10:45:02.879Z,65.92
2022-10-19T10:47:30.054Z,65.55
2022-10-19T10:50:06.613Z,64.79
2022-10-19T10:52:34.211Z,65.19
2022-10-19T10:55:14.407Z,65.94
2022-10-19T10:57:46.489Z,66.40
2022-10-19T11:00:15.978Z,65.49
2022-10-19T11:03:14.597Z,66.17
2022-10-19T11:05:45.733Z,66.46
2022-10-19T11:08:12.113Z,67.27
2022-10-19T11:10:49.528Z,67.63
2022-10-19T11:13:50.122Z,68.10
2022-10-19T11:16:35.431Z,67.95
2022-10-19T11:19:17.798Z,66.48
2022-10-19T11:21:54.883Z,66.65
2022-10-19T11:24:26.299Z,67.17
2022-10-19T11:27:04.933Z,66.79
2022-10-19T11:29:58.938Z,66.22
2022-10-19T11:32:30.710Z,65.43
2022-10-19T11:35:05.585Z,65.31
2022-10-19T11:38:28.884Z,65.67
2022-10-19T11:41:19.393Z,65.91
2022-10-19T11:44:07.486Z,63.18
2022-10-19T11:47:07.290Z,63.30
2022-10-19T11:49:40.183Z,62.70
2022-10-19T11:52:17.880Z,62.12
2022-10-19T11:55:23.216Z,62.81
2022-10-19T11:58:30.024Z,63.89
2022-10-19T12:01:19.664Z,63.43
2022-10-19T12:03:56.576Z,63.05
2022-10-19T12:06:31.784Z,63.88
2022-10-19T12:09:20.433Z,65.06
2022-10-19T12:12:02.486Z,66.90
2022-10-19T12:14:34.753Z,67.14
2022-10-19T12:17:08.598Z,67.43
2022-10-19T12:19:42.586Z,67.69
2022-10-19T12:22:16.157Z,68.16
2022-10-19T12:24:43.062Z,68.07
2022-10-19T12:27:14.726Z,68.39
2022-10-19T12:29:45.641Z,67.86
2022-10-19T12:32:20.175Z,66.64
2022-10-19T12:34:57.285Z,64.12
2022-10-19T12:37:35.365Z,64.74
2022-10-19T12:40:17.977Z,64.49
2022-10-19T12:42:58.955Z,64.25
2022-10-19T12:45:31.332Z,64.38
2022-10-19T12:48:10.158Z,62.94
2022-10-19T12:50:48.618Z,62.63
2022-10-19T12:53:30.735Z,62.70
2022-10-19T12:56:01.518Z,62.53
2022-10-19T12:58:34.713Z,63.25
2022-10-19T13:01:04.780Z,63.09
2022-10-19T13:03:34.863Z,63.23
2022-10-19T13:06:09.258Z,63.53
2022-10-19T13:08:47.902Z,62.18
2022-10-19T13:11:15.295Z,62.58
2022-10-19T13:13:57.274Z,62.87
2022-10-19T13:16:30.056Z,63.07
2022-10-19T13:18:59.362Z,62.89
2022-10-19T13:22:00.413Z,63.19
2022-10-19T13:24:26.887Z,63.21
2022-10-19T13:27:02.665Z,63.32
2022-10-19T13:29:38.274Z,62.86
2022-10-19T13:32:37.605Z,62.95
2022-10-19T13:35:31.247Z,63.20
2022-10-19T13:38:16.437Z,62.45
2022-10-19T13:40:48.704Z,63.31
2022-10-19T13:43:19.645Z,62.41
2022-10-19T13:46:04.723Z,63.02
2022-10-19T13:48:44.571Z,62.64
2022-10-19T13:51:18.852Z,62.40
2022-10-19T13:54:09.494Z,63.15
2022-10-19T13:57:02.554Z,64.09
2022-10-19T13:59:47.832Z,64.50
2022-10-19T14:02:33.393Z,64.67
2022-10-19T14:08:42.435Z,65.46
2022-10-19T14:11:19.886Z,65.51
2022-10-19T14:14:06.390Z,65.00
2022-10-19T14:16:33.239Z,64.79
2022-10-19T14:18:59.814Z,65.17
2022-10-19T14:21:32.105Z,64.89
2022-10-19T14:23:59.303Z,65.06
2022-10-19T14:26:29.234Z,64.32
2022-10-19T14:28:57.691Z,65.10
2022-10-19T14:31:30.898Z,64.87
2022-10-19T14:34:02.059Z,64.60
2022-10-19T14:36:33.404Z,64.97
2022-10-19T14:38:59.967Z,65.37
2022-10-19T14:41:26.446Z,65.59
2022-10-19T14:43:54.040Z,64.72
2022-10-19T14:46:20.691Z,64.68
2022-10-19T14:48:49.702Z,64.67
2022-10-19T14:51:28.449Z,65.59
2022-10-19T14:54:05.818Z,65.07
2022-10-19T14:56:52.087Z,65.71
2022-10-19T14:59:29.168Z,65.87
2022-10-19T15:01:58.868Z,65.76
2022-10-19T15:04:29.760Z,65.52
2022-10-19T15:06:57.119Z,66.21
2022-10-19T15:09:37.285Z,66.50
2022-10-19T15:12:16.919Z,66.94
2022-10-19T15:14:45.271Z,66.95
2022-10-19T15:17:29.833Z,67.18
2022-10-19T15:19:58.533Z,68.01
2022-10-19T15:22:30.898Z,67.80
2022-10-19T15:24:59.223Z,68.21
2022-10-19T15:27:32.860Z,67.96
2022-10-19T15:30:17.649Z,67.92
2022-10-19T15:33:00.113Z,69.09
2022-10-19T15:35:30.595Z,68.86
2022-10-19T15:38:03.311Z,68.93
2022-10-19T15:40:34.729Z,69.32
2022-10-19T15:43:21.499Z,69.52
2022-10-19T15:45:48.135Z,69.70
2022-10-19T15:48:45.361Z,69.72
2022-10-19T15:51:27.307Z,70.04
2022-10-19T15:53:56.113Z,70.07
2022-10-19T15:56:24.481Z,70.22
2022-10-19T15:58:56.419Z,70.45
2022-10-19T16:01:29.261Z,70.78
2022-10-19T16:03:56.595Z,71.57
2022-10-19T16:06:26.307Z,71.54
2022-10-19T16:08:52.995Z,72.09
2022-10-19T16:11:21.126Z,72.29
2022-10-19T16:13:47.867Z,72.61
2022-10-19T16:16:24.318Z,72.21
2022-10-19T16:18:51.505Z,72.60
2022-10-19T16:21:19.881Z,73.68
2022-10-19T16:23:46.629Z,73.43
2022-10-19T16:26:15.227Z,73.36
2022-10-19T16:28:42.266Z,73.42
2022-10-19T16:31:10.133Z,73.61
2022-10-19T16:33:36.872Z,74.03
2022-10-19T16:36:05.687Z,74.15
2022-10-19T16:38:32.827Z,74.25
2022-10-19T16:41:00.992Z,74.66
2022-10-19T16:43:27.875Z,75.29
2022-10-19T16:45:54.512Z,75.79
2022-10-19T16:48:24.070Z,75.60
2022-10-19T16:51:27.564Z,76.04
2022-10-19T16:53:57.023Z,76.76
2022-10-19T16:56:25.727Z,77.22
2022-10-19T16:59:01.414Z,77.77
2022-10-19T17:01:29.765Z,78.14
2022-10-19T17:03:56.999Z,78.33
2022-10-19T17:06:24.763Z,78.73
2022-10-19T17:11:39.754Z,79.58
2022-10-19T17:14:09.034Z,79.83
2022-10-19T17:16:36.825Z,80.21
2022-10-19T17:19:05.457Z,81.54
2022-10-19T17:21:34.369Z,82.41
2022-10-19T17:24:02.826Z,83.29
2022-10-19T17:26:34.971Z,84.34
2022-10-19T17:29:02.125Z,85.21
2022-10-19T17:31:29.587Z,84.53
2022-10-19T17:33:56.702Z,85.20
2022-10-19T17:36:36.509Z,87.30
2022-10-19T17:39:07.119Z,86.90
2022-10-19T17:41:34.386Z,87.79
2022-10-19T17:44:03.811Z,89.10
2022-10-19T17:46:33.148Z,91.73
2022-10-19T17:49:00.350Z,93.35
2022-10-19T17:51:29.999Z,95.66
2022-10-19T17:53:59.665Z,97.73
2022-10-19T17:56:27.849Z,99.20
2022-10-19T17:58:56.119Z,100.00
2022-10-19T18:01:23.182Z,100.00
2022-10-19T18:03:50.538Z,100.00
2022-10-19T18:06:23.346Z,100.00
2022-10-19T18:08:53.091Z,100.00
2022-10-19T18:11:22.551Z,100.00
2022-10-19T18:13:52.647Z,100.00
2022-10-19T18:16:22.306Z,100.00
2022-10-19T18:18:50.463Z,100.00
2022-10-19T18:21:20.491Z,100.00
2022-10-19T18:23:47.649Z,100.00
2022-10-19T18:26:17.582Z,100.00
2022-10-19T18:28:44.247Z,100.00
2022-10-19T18:31:12.591Z,100.00
2022-10-19T18:33:39.644Z,100.00
2022-10-19T18:36:08.999Z,100.00
2022-10-19T18:38:36.322Z,100.00
2022-10-19T18:41:08.720Z,100.00
2022-10-19T18:43:35.326Z,100.00
2022-10-19T18:46:02.071Z,100.00
2022-10-19T18:48:29.896Z,100.00
2022-10-19T18:50:57.205Z,100.00
2022-10-19T18:53:24.465Z,100.00
2022-10-19T18:56:02.422Z,100.00
2022-10-19T18:58:29.007Z,100.00
2022-10-19T19:01:04.556Z,100.00
2022-10-19T19:03:31.446Z,100.00
2022-10-19T19:06:02.857Z,100.00
2022-10-19T19:08:29.628Z,100.00
2022-10-19T19:10:57.000Z,100.00
2022-10-19T19:13:24.043Z,100.00
2022-10-19T19:15:58.553Z,100.00
2022-10-19T19:18:25.913Z,100.00
2022-10-19T19:20:52.880Z,100.00
2022-10-19T19:23:19.537Z,100.00
2022-10-19T19:25:47.064Z,100.00
2022-10-19T19:28:14.016Z,100.00
2022-10-19T19:30:45.508Z,100.00
2022-10-19T19:33:14.899Z,100.00
2022-10-19T19:35:45.312Z,100.00
2022-10-19T19:38:13.182Z,100.00
2022-10-19T19:40:45.038Z,100.00
2022-10-19T19:43:13.840Z,100.00
2022-10-19T19:45:41.143Z,100.00
2022-10-19T19:48:09.463Z,100.00
2022-10-19T19:50:38.003Z,100.00
2022-10-19T19:53:05.120Z,100.00
2022-10-19T19:55:38.136Z,100.00
2022-10-19T19:58:05.990Z,100.00
2022-10-19T20:00:32.546Z,100.00
2022-10-19T20:02:59.683Z,100.00
2022-10-19T20:05:26.839Z,100.00
2022-10-19T20:07:53.381Z,100.00
2022-10-19T20:10:19.922Z,100.00
2022-10-19T20:12:47.589Z,100.00
2022-10-19T20:15:16.492Z,100.00
2022-10-19T20:17:43.518Z,100.00
2022-10-19T20:20:12.332Z,100.00
2022-10-19T20:22:39.377Z,100.00
2022-10-19T20:25:06.633Z,100.00
2022-10-19T20:27:36.483Z,100.00
2022-10-19T20:30:04.534Z,100.00
2022-10-19T20:32:31.585Z,100.00
2022-10-19T20:34:58.122Z,100.00
2022-10-19T20:37:24.868Z,100.00
2022-10-19T20:39:51.512Z,100.00
2022-10-19T20:42:18.975Z,100.00
2022-10-19T20:44:45.777Z,100.00
2022-10-19T20:47:12.264Z,100.00
2022-10-19T20:49:38.724Z,100.00
2022-10-19T20:52:05.171Z,100.00
2022-10-19T20:54:31.775Z,100.00
2022-10-19T20:56:58.325Z,100.00
2022-10-19T20:59:25.373Z,100.00
2022-10-19T21:01:53.609Z,100.00
2022-10-19T21:04:20.401Z,100.00
2022-10-19T21:06:49.879Z,100.00
2022-10-19T21:09:19.844Z,100.00
2022-10-19T21:11:47.801Z,100.00
2022-10-19T21:14:21.252Z,100.00
2022-10-19T21:16:50.482Z,100.00
2022-10-19T21:19:22.796Z,100.00
2022-10-19T21:21:56.423Z,100.00
2022-10-19T21:24:25.403Z,100.00
2022-10-19T21:29:23.894Z,100.00
2022-10-19T21:31:52.612Z,100.00
2022-10-19T21:34:22.483Z,100.00
2022-10-19T21:36:49.443Z,100.00
2022-10-19T21:39:17.019Z,100.00
2022-10-19T21:41:43.553Z,100.00
2022-10-19T21:44:10.303Z,100.00
2022-10-19T21:46:36.838Z,100.00
2022-10-19T21:49:03.258Z,100.00
2022-10-19T21:51:47.209Z,100.00
2022-10-19T21:54:16.449Z,100.00
2022-10-19T21:56:43.390Z,100.00
2022-10-19T21:59:12.053Z,100.00
2022-10-19T22:01:41.293Z,100.00
2022-10-19T22:04:12.617Z,100.00
2022-10-19T22:06:39.569Z,100.00
2022-10-19T22:09:08.721Z,100.00
2022-10-19T22:11:35.573Z,100.00
2022-10-19T22:14:03.793Z,100.00
2022-10-19T22:16:31.931Z,100.00
2022-10-19T22:18:59.024Z,100.00
2022-10-19T22:21:30.873Z,100.00
2022-10-19T22:24:00.027Z,100.00
2022-10-19T22:26:30.350Z,100.00
2022-10-19T22:28:59.314Z,100.00
2022-10-19T22:31:27.701Z,100.00
2022-10-19T22:33:54.242Z,100.00
2022-10-19T22:36:20.895Z,100.00
2022-10-19T22:38:48.228Z,100.00
2022-10-19T22:41:14.674Z,100.00
2022-10-19T22:43:41.217Z,100.00
2022-10-19T22:46:08.070Z,100.00
2022-10-19T22:48:34.606Z,100.00
2022-10-19T22:51:01.148Z,100.00
2022-10-19T22:53:27.652Z,100.00
2022-10-19T22:55:54.130Z,100.00
2022-10-19T22:58:20.763Z,100.00
2022-10-19T23:00:59.245Z,100.00
2022-10-19T23:03:25.767Z,100.00
2022-10-19T23:05:52.362Z,100.00
2022-10-19T23:08:18.903Z,100.00
2022-10-19T23:10:45.370Z,100.00
2022-10-19T23:13:11.889Z,100.00
2022-10-19T23:15:43.087Z,100.00
2022-10-19T23:18:11.522Z,100.00
2022-10-19T23:20:38.064Z,100.00
2022-10-19T23:23:05.627Z,100.00
2022-10-19T23:28:03.416Z,100.00
2022-10-19T23:30:29.872Z,100.00
2022-10-19T23:32:56.295Z,100.00
2022-10-19T23:35:22.836Z,100.00
2022-10-19T23:37:49.372Z,100.00
2022-10-19T23:40:16.015Z,100.00
2022-10-19T23:42:42.456Z,100.00
2022-10-19T23:45:09.578Z,100.00
2022-10-19T23:47:36.403Z,100.00
2022-10-19T23:50:03.927Z,100.00
2022-10-19T23:52:30.656Z,100.00
2022-10-19T23:54:57.109Z,100.00
2022-10-19T23:57:23.578Z,100.00
2022-10-19T23:59:50.052Z,100.00
